createdAt,value
2018-08-24T00:00:29.553Z,100459.00
2018-08-24T00:02:58.371Z,100448.00
2018-08-24T00:05:27.239Z,100444.00
2018-08-24T00:07:56.055Z,100447.00
2018-08-24T00:10:24.874Z,100439.00
2018-08-24T00:12:53.749Z,100421.00
2018-08-24T00:15:22.533Z,100440.00
2018-08-24T00:17:51.664Z,100430.00
2018-08-24T00:20:20.484Z,100430.00
2018-08-24T00:22:49.292Z,100428.00
2018-08-24T00:25:18.162Z,100424.00
2018-08-24T00:27:46.940Z,100419.00
2018-08-24T00:30:15.765Z,100414.00
2018-08-24T00:32:47.490Z,100412.00
2018-08-24T00:35:16.289Z,100411.00
2018-08-24T00:37:45.316Z,100405.00
2018-08-24T00:40:14.106Z,100407.00
2018-08-24T00:42:43.338Z,100409.00
2018-08-24T00:45:12.160Z,100408.00
2018-08-24T00:47:40.981Z,100399.00
2018-08-24T00:50:09.798Z,100395.00
2018-08-24T00:52:38.614Z,100394.00
2018-08-24T00:55:08.234Z,100379.00
2018-08-24T00:57:37.046Z,100374.00
2018-08-24T01:00:07.649Z,100368.00
2018-08-24T01:02:36.485Z,100375.00
2018-08-24T01:05:05.286Z,100380.00
2018-08-24T01:07:39.669Z,100367.00
2018-08-24T01:10:13.865Z,100368.00
2018-08-24T01:12:42.672Z,100381.00
2018-08-24T01:15:14.254Z,100368.00
2018-08-24T01:17:49.133Z,100376.00
2018-08-24T01:20:19.875Z,100380.00
2018-08-24T01:22:48.681Z,100384.00
2018-08-24T01:25:17.701Z,100378.00
2018-08-24T01:27:46.530Z,100368.00
2018-08-24T01:30:15.381Z,100363.00
2018-08-24T01:32:44.207Z,100360.00
2018-08-24T01:35:13.022Z,100361.00
2018-08-24T01:37:41.822Z,100364.00
2018-08-24T01:40:11.005Z,100362.00
2018-08-24T01:42:39.814Z,100358.00
2018-08-24T01:45:09.623Z,100355.00
2018-08-24T01:47:38.446Z,100350.00
2018-08-24T01:50:08.127Z,100335.00
2018-08-24T01:52:36.942Z,100346.00
2018-08-24T01:55:05.777Z,100352.00
2018-08-24T01:57:34.593Z,100339.00
2018-08-24T02:00:03.420Z,100339.00
2018-08-24T02:02:32.559Z,100345.00
2018-08-24T02:05:01.391Z,100348.00
2018-08-24T02:07:30.219Z,100349.00
2018-08-24T02:09:59.052Z,100343.00
2018-08-24T02:12:33.367Z,100360.00
2018-08-24T02:15:02.180Z,100357.00
2018-08-24T02:17:36.397Z,100354.00
2018-08-24T02:20:10.683Z,100337.00
2018-08-24T02:22:40.415Z,100335.00
2018-08-24T02:25:09.249Z,100340.00
2018-08-24T02:27:38.067Z,100342.00
2018-08-24T02:30:08.378Z,100342.00
2018-08-24T02:32:37.185Z,100333.00
2018-08-24T02:35:06.627Z,100336.00
2018-08-24T02:37:35.485Z,100340.00
2018-08-24T02:40:04.913Z,100337.00
2018-08-24T02:42:34.063Z,100342.00
2018-08-24T02:45:02.938Z,100344.00
2018-08-24T02:47:32.182Z,100336.00
2018-08-24T02:50:00.997Z,100341.00
2018-08-24T02:52:29.819Z,100341.00
2018-08-24T02:54:58.625Z,100325.00
2018-08-24T02:57:27.482Z,100333.00
2018-08-24T02:59:56.302Z,100320.00
2018-08-24T03:02:25.136Z,100326.00
2018-08-24T03:04:54.489Z,100319.00
2018-08-24T03:07:23.639Z,100326.00
2018-08-24T03:09:52.439Z,100315.00
2018-08-24T03:12:21.270Z,100326.00
2018-08-24T03:14:50.919Z,100320.00
2018-08-24T03:17:25.040Z,100317.00
2018-08-24T03:19:53.845Z,100319.00
2018-08-24T03:22:22.653Z,100319.00
2018-08-24T03:24:52.067Z,100326.00
2018-08-24T03:27:20.887Z,100312.00
2018-08-24T03:29:49.692Z,100319.00
2018-08-24T03:32:18.549Z,100319.00
2018-08-24T03:34:47.349Z,100324.00
2018-08-24T03:37:16.163Z,100317.00
2018-08-24T03:39:44.960Z,100307.00
2018-08-24T03:42:13.762Z,100310.00
2018-08-24T03:44:42.588Z,100313.00
2018-08-24T03:47:11.729Z,100322.00
2018-08-24T03:49:41.145Z,100324.00
2018-08-24T03:52:09.946Z,100306.00
2018-08-24T03:54:45.082Z,100321.00
2018-08-24T03:57:13.884Z,100319.00
2018-08-24T03:59:42.687Z,100307.00
2018-08-24T04:02:12.820Z,100312.00
2018-08-24T04:04:42.008Z,100317.00
2018-08-24T04:07:10.819Z,100318.00
2018-08-24T04:09:39.639Z,100325.00
2018-08-24T04:12:08.446Z,100325.00
2018-08-24T04:14:37.268Z,100337.00
2018-08-24T04:17:11.713Z,100333.00
2018-08-24T04:19:40.517Z,100335.00
2018-08-24T04:22:09.391Z,100334.00
2018-08-24T04:24:38.562Z,100334.00
2018-08-24T04:27:07.394Z,100335.00
2018-08-24T04:29:36.199Z,100332.00
2018-08-24T04:32:05.024Z,100343.00
2018-08-24T04:34:33.833Z,100335.00
2018-08-24T04:37:02.653Z,100332.00
2018-08-24T04:39:31.439Z,100338.00
2018-08-24T04:42:00.275Z,100332.00
2018-08-24T04:44:29.094Z,100325.00
2018-08-24T04:46:58.302Z,100325.00
2018-08-24T04:49:27.150Z,100340.00
2018-08-24T04:51:56.393Z,100337.00
2018-08-24T04:54:25.245Z,100343.00
2018-08-24T04:56:54.027Z,100333.00
2018-08-24T04:59:22.832Z,100323.00
2018-08-24T05:01:51.653Z,100321.00
2018-08-24T05:04:20.478Z,100337.00
2018-08-24T05:06:49.294Z,100321.00
2018-08-24T05:09:18.598Z,100325.00
2018-08-24T05:11:47.418Z,100326.00
2018-08-24T05:14:16.215Z,100325.00
2018-08-24T05:16:45.032Z,100313.00
2018-08-24T05:19:13.866Z,100319.00
2018-08-24T05:21:43.258Z,100326.00
2018-08-24T05:24:12.082Z,100331.00
2018-08-24T05:26:40.906Z,100330.00
2018-08-24T05:29:09.714Z,100326.00
2018-08-24T05:31:38.827Z,100342.00
2018-08-24T05:34:07.668Z,100339.00
2018-08-24T05:36:36.486Z,100350.00
2018-08-24T05:39:07.495Z,100351.00
2018-08-24T05:41:37.055Z,100340.00
2018-08-24T05:44:05.882Z,100352.00
2018-08-24T05:46:34.887Z,100354.00
2018-08-24T05:49:03.718Z,100346.00
2018-08-24T05:51:32.550Z,100360.00
2018-08-24T05:54:03.383Z,100348.00
2018-08-24T05:56:32.194Z,100364.00
2018-08-24T05:59:01.013Z,100366.00
2018-08-24T06:01:29.838Z,100349.00
2018-08-24T06:03:58.654Z,100362.00
2018-08-24T06:06:27.466Z,100359.00
2018-08-24T06:09:01.473Z,100368.00
2018-08-24T06:11:30.294Z,100361.00
2018-08-24T06:13:59.104Z,100358.00
2018-08-24T06:16:28.147Z,100357.00
2018-08-24T06:18:56.977Z,100364.00
2018-08-24T06:21:25.807Z,100373.00
2018-08-24T06:23:54.638Z,100385.00
2018-08-24T06:26:23.460Z,100378.00
2018-08-24T06:28:52.696Z,100380.00
2018-08-24T06:31:21.551Z,100377.00
2018-08-24T06:33:50.358Z,100383.00
2018-08-24T06:36:19.175Z,100384.00
2018-08-24T06:38:48.201Z,100381.00
2018-08-24T06:41:17.014Z,100377.00
2018-08-24T06:43:45.827Z,100381.00
2018-08-24T06:46:14.642Z,100378.00
2018-08-24T06:48:43.454Z,100370.00
2018-08-24T06:51:12.271Z,100360.00
2018-08-24T06:53:41.243Z,100365.00
2018-08-24T06:56:10.361Z,100370.00
2018-08-24T06:58:39.272Z,100366.00
2018-08-24T07:01:08.642Z,100378.00
2018-08-24T07:03:37.453Z,100373.00
2018-08-24T07:06:06.358Z,100379.00
2018-08-24T07:08:35.166Z,100390.00
2018-08-24T07:11:03.973Z,100388.00
2018-08-24T07:13:32.777Z,100391.00
2018-08-24T07:16:01.618Z,100391.00
2018-08-24T07:18:34.603Z,100401.00
2018-08-24T07:21:03.747Z,100406.00
2018-08-24T07:23:32.594Z,100398.00
2018-08-24T07:26:01.398Z,100404.00
2018-08-24T07:28:30.240Z,100396.00
2018-08-24T07:30:59.078Z,100397.00
2018-08-24T07:33:27.958Z,100389.00
2018-08-24T07:35:56.790Z,100399.00
2018-08-24T07:38:25.624Z,100407.00
2018-08-24T07:40:54.472Z,100410.00
2018-08-24T07:43:23.918Z,100412.00
2018-08-24T07:45:52.732Z,100416.00
2018-08-24T07:48:21.578Z,100414.00
2018-08-24T07:50:50.503Z,100411.00
2018-08-24T07:53:19.300Z,100410.00
2018-08-24T07:55:48.123Z,100404.00
2018-08-24T07:58:17.354Z,100417.00
2018-08-24T08:00:46.270Z,100407.00
2018-08-24T08:03:15.118Z,100408.00
2018-08-24T08:05:44.416Z,100411.00
2018-08-24T08:08:13.331Z,100416.00
2018-08-24T08:10:42.437Z,100416.00
2018-08-24T08:13:12.113Z,100427.00
2018-08-24T08:15:41.351Z,100423.00
2018-08-24T08:18:10.247Z,100426.00
2018-08-24T08:20:39.007Z,100426.00
2018-08-24T08:23:08.139Z,100421.00
2018-08-24T08:25:37.156Z,100428.00
2018-08-24T08:28:06.263Z,100439.00
2018-08-24T08:30:35.103Z,100442.00
2018-08-24T08:33:03.930Z,100448.00
2018-08-24T08:35:32.769Z,100458.00
2018-08-24T08:38:01.576Z,100449.00
2018-08-24T08:40:30.403Z,100440.00
2018-08-24T08:42:59.226Z,100446.00
2018-08-24T08:49:00.443Z,100447.00
2018-08-24T08:51:29.258Z,100452.00
2018-08-24T08:53:58.075Z,100451.00
2018-08-24T08:56:26.910Z,100446.00
2018-08-24T08:58:56.128Z,100455.00
2018-08-24T09:01:24.995Z,100449.00
2018-08-24T09:03:53.894Z,100451.00
2018-08-24T09:06:22.721Z,100458.00
2018-08-24T09:08:51.551Z,100460.00
2018-08-24T09:11:20.695Z,100453.00
2018-08-24T09:13:49.543Z,100455.00
2018-08-24T09:16:18.365Z,100451.00
2018-08-24T09:18:52.682Z,100455.00
2018-08-24T09:21:26.728Z,100470.00
2018-08-24T09:24:01.112Z,100451.00
2018-08-24T09:26:35.287Z,100460.00
2018-08-24T09:29:08.305Z,100464.00
2018-08-24T09:31:38.857Z,100463.00
2018-08-24T09:34:07.676Z,100466.00
2018-08-24T09:36:36.495Z,100475.00
2018-08-24T09:39:08.453Z,100470.00
2018-08-24T09:41:37.279Z,100478.00
2018-08-24T09:44:06.135Z,100471.00
2018-08-24T09:46:40.849Z,100467.00
2018-08-24T09:49:15.000Z,100464.00
2018-08-24T09:51:43.791Z,100473.00
2018-08-24T09:54:12.596Z,100484.00
2018-08-24T09:56:41.500Z,100484.00
2018-08-24T09:59:10.816Z,100488.00
2018-08-24T10:01:44.967Z,100480.00
2018-08-24T10:04:19.626Z,100474.00
2018-08-24T10:06:54.059Z,100472.00
2018-08-24T10:09:22.866Z,100482.00
2018-08-24T10:11:51.701Z,100480.00
2018-08-24T10:14:20.513Z,100483.00
2018-08-24T10:16:49.370Z,100479.00
2018-08-24T10:19:18.174Z,100479.00
2018-08-24T10:21:46.991Z,100481.00
2018-08-24T10:24:16.089Z,100483.00
2018-08-24T10:26:44.897Z,100486.00
2018-08-24T10:29:13.749Z,100490.00
2018-08-24T10:31:42.547Z,100484.00
2018-08-24T10:34:11.367Z,100491.00
2018-08-24T10:36:40.183Z,100492.00
2018-08-24T10:39:10.743Z,100489.00
2018-08-24T10:41:39.598Z,100498.00
2018-08-24T10:44:08.758Z,100497.00
2018-08-24T10:46:38.097Z,100513.00
2018-08-24T10:49:06.914Z,100510.00
2018-08-24T10:51:35.835Z,100510.00
2018-08-24T10:54:04.591Z,100509.00
2018-08-24T10:56:33.385Z,100513.00
2018-08-24T10:59:02.262Z,100522.00
2018-08-24T11:01:31.446Z,100526.00
2018-08-24T11:04:00.342Z,100522.00
2018-08-24T11:06:29.141Z,100527.00
2018-08-24T11:08:58.404Z,100538.00
2018-08-24T11:11:27.223Z,100533.00
2018-08-24T11:13:56.049Z,100545.00
2018-08-24T11:16:24.871Z,100556.00
2018-08-24T11:18:53.694Z,100565.00
2018-08-24T11:21:22.547Z,100566.00
2018-08-24T11:23:51.434Z,100555.00
2018-08-24T11:26:20.342Z,100571.00
2018-08-24T11:28:49.115Z,100581.00
2018-08-24T11:31:18.291Z,100579.00
2018-08-24T11:33:47.206Z,100577.00
2018-08-24T11:36:16.204Z,100591.00
2018-08-24T11:38:44.941Z,100588.00
2018-08-24T11:41:13.753Z,100579.00
2018-08-24T11:43:42.590Z,100596.00
2018-08-24T11:46:11.430Z,100598.00
2018-08-24T11:48:40.241Z,100596.00
2018-08-24T11:51:09.073Z,100596.00
2018-08-24T11:53:38.106Z,100582.00
2018-08-24T11:56:07.421Z,100558.00
2018-08-24T11:58:36.222Z,100562.00
2018-08-24T12:01:05.099Z,100566.00
2018-08-24T12:03:34.382Z,100583.00
2018-08-24T12:06:03.396Z,100579.00
2018-08-24T12:08:32.222Z,100562.00
2018-08-24T12:11:01.078Z,100565.00
2018-08-24T12:13:29.870Z,100561.00
2018-08-24T12:15:59.366Z,100551.00
2018-08-24T12:18:28.827Z,100544.00
2018-08-24T12:20:57.552Z,100545.00
2018-08-24T12:23:26.466Z,100554.00
2018-08-24T12:25:55.298Z,100559.00
2018-08-24T12:28:24.166Z,100553.00
2018-08-24T12:30:53.106Z,100559.00
2018-08-24T12:33:21.901Z,100571.00
2018-08-24T12:35:50.736Z,100563.00
2018-08-24T12:38:19.893Z,100555.00
2018-08-24T12:40:48.724Z,100550.00
2018-08-24T12:43:17.538Z,100541.00
2018-08-24T12:45:46.357Z,100548.00
2018-08-24T12:48:15.209Z,100539.00
2018-08-24T12:50:44.033Z,100477.00
2018-08-24T12:53:12.860Z,100551.00
2018-08-24T12:55:41.726Z,100543.00
2018-08-24T12:58:10.550Z,100544.00
2018-08-24T13:00:39.822Z,100540.00
2018-08-24T13:03:08.633Z,100544.00
2018-08-24T13:05:37.843Z,100554.00
2018-08-24T13:08:06.697Z,100530.00
2018-08-24T13:10:35.526Z,100544.00
2018-08-24T13:13:04.358Z,100543.00
2018-08-24T13:15:33.181Z,100532.00
2018-08-24T13:18:02.019Z,100541.00
2018-08-24T13:20:30.888Z,100528.00
2018-08-24T13:23:00.103Z,100543.00
2018-08-24T13:25:28.946Z,100535.00
2018-08-24T13:27:57.804Z,100541.00
2018-08-24T13:30:26.651Z,100537.00
2018-08-24T13:32:55.449Z,100551.00
2018-08-24T13:35:24.281Z,100552.00
2018-08-24T13:37:53.119Z,100545.00
2018-08-24T13:40:22.569Z,100550.00
2018-08-24T13:42:51.379Z,100541.00
2018-08-24T13:45:20.607Z,100533.00
2018-08-24T13:47:49.426Z,100541.00
2018-08-24T13:50:18.258Z,100533.00
2018-08-24T13:52:47.082Z,100543.00
2018-08-24T13:55:15.881Z,100540.00
2018-08-24T13:57:44.683Z,100534.00
2018-08-24T14:00:13.551Z,100540.00
2018-08-24T14:02:42.360Z,100530.00
2018-08-24T14:05:11.408Z,100538.00
2018-08-24T14:07:41.188Z,100534.00
2018-08-24T14:10:13.053Z,100526.00
2018-08-24T14:12:41.894Z,100540.00
2018-08-24T14:15:10.760Z,100547.00
2018-08-24T14:17:39.673Z,100537.00
2018-08-24T14:20:08.561Z,100549.00
2018-08-24T14:22:37.379Z,100557.00
2018-08-24T14:25:06.217Z,100544.00
2018-08-24T14:27:35.034Z,100543.00
2018-08-24T14:30:04.174Z,100540.00
2018-08-24T14:32:33.009Z,100532.00
2018-08-24T14:35:01.823Z,100534.00
2018-08-24T14:37:30.632Z,100528.00
2018-08-24T14:39:59.450Z,100541.00
2018-08-24T14:42:28.381Z,100546.00
2018-08-24T14:44:57.226Z,100536.00
2018-08-24T14:47:26.247Z,100534.00
2018-08-24T14:49:55.254Z,100527.00
2018-08-24T14:52:24.619Z,100528.00
2018-08-24T14:54:53.436Z,100525.00
2018-08-24T14:57:23.101Z,100526.00
2018-08-24T14:59:52.511Z,100522.00
2018-08-24T15:02:21.356Z,100528.00
2018-08-24T15:04:50.139Z,100522.00
2018-08-24T15:07:18.970Z,100529.00
2018-08-24T15:09:48.316Z,100526.00
2018-08-24T15:12:17.195Z,100527.00
2018-08-24T15:14:46.467Z,100532.00
2018-08-24T15:17:15.311Z,100534.00
2018-08-24T15:19:44.307Z,100531.00
2018-08-24T15:22:13.846Z,100532.00
2018-08-24T15:24:42.723Z,100531.00
2018-08-24T15:27:11.562Z,100532.00
2018-08-24T15:29:40.524Z,100527.00
2018-08-24T15:32:09.258Z,100517.00
2018-08-24T15:34:38.050Z,100526.00
2018-08-24T15:37:07.941Z,100527.00
2018-08-24T15:39:36.754Z,100539.00
2018-08-24T15:42:06.216Z,100535.00
2018-08-24T15:44:35.045Z,100538.00
2018-08-24T15:47:03.915Z,100532.00
2018-08-24T15:49:32.725Z,100536.00
2018-08-24T15:52:01.554Z,100545.00
2018-08-24T15:54:30.345Z,100540.00
2018-08-24T15:56:59.123Z,100546.00
2018-08-24T15:59:28.341Z,100544.00
2018-08-24T16:01:57.134Z,100541.00
2018-08-24T16:04:25.950Z,100556.00
2018-08-24T16:06:55.028Z,100551.00
2018-08-24T16:09:23.839Z,100550.00
2018-08-24T16:11:53.325Z,100541.00
2018-08-24T16:14:22.161Z,100550.00
2018-08-24T16:16:57.754Z,100547.00
2018-08-24T16:19:26.910Z,100546.00
2018-08-24T16:21:55.791Z,100545.00
2018-08-24T16:24:24.554Z,100547.00
2018-08-24T16:26:53.450Z,100549.00
2018-08-24T16:29:22.235Z,100555.00
2018-08-24T16:31:51.093Z,100564.00
2018-08-24T16:34:19.906Z,100564.00
2018-08-24T16:36:48.745Z,100564.00
2018-08-24T16:39:17.535Z,100547.00
2018-08-24T16:41:46.598Z,100562.00
2018-08-24T16:44:15.458Z,100564.00
2018-08-24T16:46:44.293Z,100565.00
2018-08-24T16:49:13.099Z,100566.00
2018-08-24T16:51:41.922Z,100555.00
2018-08-24T16:54:10.782Z,100554.00
2018-08-24T16:56:39.654Z,100555.00
2018-08-24T16:59:08.540Z,100550.00
2018-08-24T17:01:37.409Z,100541.00
2018-08-24T17:04:06.680Z,100550.00
2018-08-24T17:06:35.539Z,100549.00
2018-08-24T17:09:06.727Z,100559.00
2018-08-24T17:11:35.567Z,100557.00
2018-08-24T17:14:04.863Z,100550.00
2018-08-24T17:16:33.702Z,100555.00
2018-08-24T17:19:02.539Z,100551.00
2018-08-24T17:21:31.439Z,100543.00
2018-08-24T17:24:00.284Z,100550.00
2018-08-24T17:26:29.622Z,100554.00
2018-08-24T17:28:58.521Z,100553.00
2018-08-24T17:31:27.366Z,100563.00
2018-08-24T17:33:56.247Z,100559.00
2018-08-24T17:36:25.093Z,100562.00
2018-08-24T17:38:53.946Z,100561.00
2018-08-24T17:41:23.118Z,100564.00
2018-08-24T17:43:51.912Z,100565.00
2018-08-24T17:46:20.740Z,100574.00
2018-08-24T17:48:49.993Z,100573.00
2018-08-24T17:51:18.806Z,100589.00
2018-08-24T17:53:47.618Z,100572.00
2018-08-24T17:56:16.436Z,100581.00
2018-08-24T17:58:45.230Z,100576.00
2018-08-24T18:01:14.027Z,100586.00
2018-08-24T18:03:42.813Z,100593.00
2018-08-24T18:06:13.567Z,100592.00
2018-08-24T18:08:42.370Z,100596.00
2018-08-24T18:11:11.443Z,100592.00
2018-08-24T18:13:40.278Z,100602.00
2018-08-24T18:16:09.539Z,100599.00
2018-08-24T18:18:38.332Z,100598.00
2018-08-24T18:21:07.120Z,100608.00
2018-08-24T18:23:35.965Z,100605.00
2018-08-24T18:26:04.783Z,100607.00
2018-08-24T18:28:33.590Z,100603.00
2018-08-24T18:31:02.393Z,100607.00
2018-08-24T18:33:31.473Z,100612.00
2018-08-24T18:36:00.267Z,100613.00
2018-08-24T18:38:29.062Z,100626.00
2018-08-24T18:40:57.897Z,100621.00
2018-08-24T18:43:26.901Z,100634.00
2018-08-24T18:45:56.066Z,100630.00
2018-08-24T18:48:24.904Z,100636.00
2018-08-24T18:50:53.865Z,100635.00
2018-08-24T18:53:22.575Z,100646.00
2018-08-24T18:55:52.160Z,100661.00
2018-08-24T18:58:20.957Z,100663.00
2018-08-24T19:00:49.763Z,100658.00
2018-08-24T19:03:18.550Z,100663.00
2018-08-24T19:05:47.359Z,100655.00
2018-08-24T19:08:16.142Z,100650.00
2018-08-24T19:10:50.254Z,100656.00
2018-08-24T19:13:19.040Z,100663.00
2018-08-24T19:15:49.258Z,100654.00
2018-08-24T19:18:24.525Z,100659.00
2018-08-24T19:20:58.568Z,100657.00
2018-08-24T19:23:27.353Z,100654.00
2018-08-24T19:25:56.156Z,100665.00
2018-08-24T19:28:30.422Z,100663.00
2018-08-24T19:30:59.292Z,100667.00
2018-08-24T19:33:31.354Z,100673.00
2018-08-24T19:36:00.162Z,100676.00
2018-08-24T19:38:28.956Z,100678.00
2018-08-24T19:41:03.046Z,100683.00
2018-08-24T19:43:31.849Z,100682.00
2018-08-24T19:46:00.646Z,100676.00
2018-08-24T19:48:35.251Z,100671.00
2018-08-24T19:51:04.055Z,100669.00
2018-08-24T19:53:33.126Z,100675.00
2018-08-24T19:56:01.960Z,100676.00
2018-08-24T19:58:36.127Z,100665.00
2018-08-24T20:01:04.938Z,100672.00
2018-08-24T20:03:33.721Z,100670.00
2018-08-24T20:06:08.505Z,100663.00
2018-08-24T20:08:42.798Z,100666.00
2018-08-24T20:11:11.563Z,100666.00
2018-08-24T20:13:40.339Z,100662.00
2018-08-24T20:16:14.516Z,100670.00
2018-08-24T20:18:43.660Z,100670.00
2018-08-24T20:21:12.369Z,100669.00
2018-08-24T20:23:41.418Z,100670.00
2018-08-24T20:26:10.216Z,100671.00
2018-08-24T20:28:38.996Z,100664.00
2018-08-24T20:31:07.789Z,100669.00
2018-08-24T20:33:36.646Z,100668.00
2018-08-24T20:36:05.460Z,100671.00
2018-08-24T20:38:34.299Z,100686.00
2018-08-24T20:41:03.083Z,100675.00
2018-08-24T20:43:31.864Z,100678.00
2018-08-24T20:46:01.129Z,100678.00
2018-08-24T20:48:29.919Z,100681.00
2018-08-24T20:50:58.711Z,100680.00
2018-08-24T20:53:27.530Z,100681.00
2018-08-24T20:55:56.319Z,100688.00
2018-08-24T20:58:25.214Z,100684.00
2018-08-24T21:00:54.010Z,100697.00
2018-08-24T21:03:22.794Z,100681.00
2018-08-24T21:05:51.592Z,100694.00
2018-08-24T21:08:20.854Z,100697.00
2018-08-24T21:10:56.423Z,100698.00
2018-08-24T21:13:25.221Z,100691.00
2018-08-24T21:15:54.043Z,100697.00
2018-08-24T21:18:22.824Z,100699.00
2018-08-24T21:20:52.019Z,100702.00
2018-08-24T21:23:20.849Z,100699.00
2018-08-24T21:25:49.658Z,100705.00
2018-08-24T21:28:18.742Z,100702.00
2018-08-24T21:30:47.534Z,100703.00
2018-08-24T21:33:16.327Z,100703.00
2018-08-24T21:35:45.159Z,100709.00
2018-08-24T21:38:20.731Z,100699.00
2018-08-24T21:40:49.552Z,100704.00
2018-08-24T21:43:18.369Z,100702.00
2018-08-24T21:45:47.162Z,100710.00
2018-08-24T21:48:16.424Z,100692.00
2018-08-24T21:50:45.222Z,100694.00
2018-08-24T21:53:14.002Z,100693.00
2018-08-24T21:55:45.888Z,100686.00
2018-08-24T21:58:14.896Z,100698.00
2018-08-24T22:00:43.836Z,100703.00
2018-08-24T22:03:13.667Z,100700.00
2018-08-24T22:05:42.766Z,100706.00
2018-08-24T22:08:12.082Z,100706.00
2018-08-24T22:10:41.262Z,100705.00
2018-08-24T22:13:10.040Z,100706.00
2018-08-24T22:15:38.866Z,100714.00
2018-08-24T22:18:07.675Z,100718.00
2018-08-24T22:20:36.523Z,100715.00
2018-08-24T22:23:05.794Z,100720.00
2018-08-24T22:25:34.633Z,100725.00
2018-08-24T22:28:03.422Z,100717.00
2018-08-24T22:30:32.206Z,100724.00
2018-08-24T22:33:01.380Z,100725.00
2018-08-24T22:35:30.189Z,100727.00
2018-08-24T22:37:58.983Z,100720.00
2018-08-24T22:40:27.798Z,100721.00
2018-08-24T22:42:56.582Z,100721.00
2018-08-24T22:45:25.415Z,100726.00
2018-08-24T22:47:54.539Z,100723.00
2018-08-24T22:50:23.486Z,100725.00
2018-08-24T22:52:52.267Z,100726.00
2018-08-24T22:55:21.722Z,100711.00
2018-08-24T22:57:50.551Z,100701.00
2018-08-24T23:00:19.400Z,100692.00
2018-08-24T23:02:48.186Z,100701.00
2018-08-24T23:05:16.971Z,100708.00
2018-08-24T23:07:45.783Z,100705.00
2018-08-24T23:10:14.758Z,100696.00
2018-08-24T23:12:43.546Z,100694.00
2018-08-24T23:15:12.387Z,100702.00
2018-08-24T23:17:41.413Z,100707.00
2018-08-24T23:20:10.313Z,100695.00
2018-08-24T23:22:39.089Z,100697.00
2018-08-24T23:25:09.483Z,100697.00
2018-08-24T23:27:38.301Z,100694.00
2018-08-24T23:30:08.474Z,100682.00
2018-08-24T23:32:37.259Z,100696.00
2018-08-24T23:35:06.065Z,100701.00
2018-08-24T23:37:34.851Z,100705.00
2018-08-24T23:40:03.765Z,100709.00
2018-08-24T23:42:32.604Z,100697.00
2018-08-24T23:45:01.403Z,100702.00
2018-08-24T23:47:30.198Z,100699.00
2018-08-24T23:49:58.966Z,100706.00
2018-08-24T23:52:27.754Z,100687.00
2018-08-24T23:54:56.575Z,100690.00
2018-08-24T23:57:25.384Z,100687.00
2018-08-24T23:59:54.189Z,100684.00
